Chilcoot, CA (96105)

4:46 AM PDT on October 01, 2014 (GMT -0700)
Main Street Loyalton | Change Station
CLOSE
Current Station
Personal Weather Station
Location: Loyalton, CA
Elevation: 4964 ft
Nearby Weather Stations

Elev 4964 ft 39.68 °N, 120.24 °W | Updated 1 second ago

Clear
Clear
34.0 °F
Feels Like 34 °F
N
0.0
Wind Variable Wind from South
Gusts 0.0 mph

Today
High -- | Low -- °F
--% Chance of Precip.
Yesterday
High -- | Low -- °F
Precip. -- in
6:57 AM 6:43 PM
Waxing Crescent, 46% visible
Pressure 30.13 in
Visibility 10.0 miles
Clouds Clear
Windchill 34 °F
Dew Point 30 °F
Humidity 86%
Rainfall 0.00 in
Snow Depth 0 in , 1 in , 0 in
UV 0 out of 12
Pollen 5.00 out of 12
Air Quality Not available.
Flu Activity Not available.
METAR KRTS 011115Z AUTO 31003KT 10SM CLR 03/M01 A3013 RMK AO2

More Conditions Fewer Conditions

Pressure 30.13 in
Visibility 10.0 miles
Clouds Clear
Windchill 34 °F
Dew Point 30 °F
Humidity 86%
Rainfall 0.00 in
Snow Depth 0 in , 1 in , 0 in
UV 0 out of 12
Pollen 5.00 out of 12
Air Quality Not available.
Flu Activity Not available.
METAR KRTS 011115Z AUTO 31003KT 10SM CLR 03/M01 A3013 RMK AO2

More Conditions Fewer Conditions

10-Day Weather Forecast

Almanac

Astronomy

Oct. 01, 2014 Rise Set
Actual Time 6:57 AM PDT 6:43 PM PDT
Civil Twilight 6:30 AM PDT 7:09 PM PDT
Nautical Twilight 5:58 AM PDT 7:41 PM PDT
Astronomical Twilight 5:27 AM PDT 8:12 PM PDT
Moon 2:01 PM PDT No Moon Set
Length of Visible Light 12h 39m
Length of Day
11h 45m
Tomorrow will be 2m 35s shorter.
Waxing Crescent, 46% of the Moon is Illuminated
Today
Waxing Crescent
Oct 1
First Quarter
Oct 8
Full
Oct 15
Last Quarter
Oct 23
New

Today's Extremes

State Highs State Lows

Community

WunderPhotos

Upload Photos

1,757,913 photos uploaded!

Nearby

Snow Depth

Station Depth Elevation
Poison Flat 0 in 7900 ft
Spratt Creek 1 in 6200 ft
Adin Mountain 0 in 6200 ft
Heavenly Valley 0 in 8850 ft
Summit Meadow 1 in 9122 ft

Earthquake Activity

City Distance Mag. Time & Date
No recent earthquake activity has been reported nearby.
Minimum magnitude displayed is 2.5.

Coastal Water Temperatures

Place Temperature
No Stations Reporting

Nearby Weather Stations